sensor_id;sensor_type;location;lat;lon;timestamp;temperature;humidity
11573;DHT22;5842;52.426;4.886;2022-07-19T00:00:26;19.70;99.90
11573;DHT22;5842;52.426;4.886;2022-07-19T00:02:53;19.70;99.90
11573;DHT22;5842;52.426;4.886;2022-07-19T00:05:20;19.60;99.90
11573;DHT22;5842;52.426;4.886;2022-07-19T00:07:49;19.60;99.90
11573;DHT22;5842;52.426;4.886;2022-07-19T00:10:18;19.60;99.90
11573;DHT22;5842;52.426;4.886;2022-07-19T00:12:46;19.50;99.90
11573;DHT22;5842;52.426;4.886;2022-07-19T00:15:14;19.50;99.90
11573;DHT22;5842;52.426;4.886;2022-07-19T00:17:44;19.50;99.90
11573;DHT22;5842;52.426;4.886;2022-07-19T00:20:13;19.40;99.90
11573;DHT22;5842;52.426;4.886;2022-07-19T00:25:09;19.40;99.90
11573;DHT22;5842;52.426;4.886;2022-07-19T00:27:36;19.30;99.90
11573;DHT22;5842;52.426;4.886;2022-07-19T00:30:05;19.30;99.90
11573;DHT22;5842;52.426;4.886;2022-07-19T00:32:32;19.30;99.90
11573;DHT22;5842;52.426;4.886;2022-07-19T00:35:00;19.20;99.90
11573;DHT22;5842;52.426;4.886;2022-07-19T00:37:27;19.20;99.90
11573;DHT22;5842;52.426;4.886;2022-07-19T00:39:54;19.20;99.90
11573;DHT22;5842;52.426;4.886;2022-07-19T00:42:23;19.10;99.90
11573;DHT22;5842;52.426;4.886;2022-07-19T00:44:50;19.10;99.90
11573;DHT22;5842;52.426;4.886;2022-07-19T00:47:17;19.10;99.90
11573;DHT22;5842;52.426;4.886;2022-07-19T00:49:44;19.10;99.90
11573;DHT22;5842;52.426;4.886;2022-07-19T00:52:13;19.10;99.90
11573;DHT22;5842;52.426;4.886;2022-07-19T00:54:42;19.10;99.90
11573;DHT22;5842;52.426;4.886;2022-07-19T00:57:10;19.10;99.90
11573;DHT22;5842;52.426;4.886;2022-07-19T00:59:39;19.00;99.90
11573;DHT22;5842;52.426;4.886;2022-07-19T01:02:06;19.00;99.90
11573;DHT22;5842;52.426;4.886;2022-07-19T01:04:34;19.00;99.90
11573;DHT22;5842;52.426;4.886;2022-07-19T01:07:01;19.00;99.90
11573;DHT22;5842;52.426;4.886;2022-07-19T01:09:28;18.90;99.90
11573;DHT22;5842;52.426;4.886;2022-07-19T01:11:56;18.90;99.90
11573;DHT22;5842;52.426;4.886;2022-07-19T01:14:23;18.90;99.90
11573;DHT22;5842;52.426;4.886;2022-07-19T01:16:52;18.80;99.90
11573;DHT22;5842;52.426;4.886;2022-07-19T01:19:21;18.80;99.90
11573;DHT22;5842;52.426;4.886;2022-07-19T01:21:50;18.80;99.90
11573;DHT22;5842;52.426;4.886;2022-07-19T01:24:17;18.70;99.90
11573;DHT22;5842;52.426;4.886;2022-07-19T01:26:44;18.70;99.90
11573;DHT22;5842;52.426;4.886;2022-07-19T01:29:14;18.70;99.90
11573;DHT22;5842;52.426;4.886;2022-07-19T01:31:41;18.70;99.90
11573;DHT22;5842;52.426;4.886;2022-07-19T01:34:08;18.70;99.90
11573;DHT22;5842;52.426;4.886;2022-07-19T01:36:35;18.70;99.90
11573;DHT22;5842;52.426;4.886;2022-07-19T01:39:04;18.70;99.90
11573;DHT22;5842;52.426;4.886;2022-07-19T01:41:31;18.60;99.90
11573;DHT22;5842;52.426;4.886;2022-07-19T01:43:58;18.60;99.90
11573;DHT22;5842;52.426;4.886;2022-07-19T01:46:25;18.50;99.90
11573;DHT22;5842;52.426;4.886;2022-07-19T01:48:52;18.50;99.90
11573;DHT22;5842;52.426;4.886;2022-07-19T01:51:19;18.50;99.90
11573;DHT22;5842;52.426;4.886;2022-07-19T01:53:46;18.40;99.90
11573;DHT22;5842;52.426;4.886;2022-07-19T01:56:15;18.40;99.90
11573;DHT22;5842;52.426;4.886;2022-07-19T01:58:42;18.30;99.90
11573;DHT22;5842;52.426;4.886;2022-07-19T02:01:10;18.30;99.90
11573;DHT22;5842;52.426;4.886;2022-07-19T02:03:37;18.30;99.90
11573;DHT22;5842;52.426;4.886;2022-07-19T02:06:05;18.30;99.90
11573;DHT22;5842;52.426;4.886;2022-07-19T02:08:32;18.20;99.90
11573;DHT22;5842;52.426;4.886;2022-07-19T02:10:59;18.20;99.90
11573;DHT22;5842;52.426;4.886;2022-07-19T02:13:48;18.20;99.90
11573;DHT22;5842;52.426;4.886;2022-07-19T02:16:15;18.20;99.90
11573;DHT22;5842;52.426;4.886;2022-07-19T02:18:42;18.20;99.90
11573;DHT22;5842;52.426;4.886;2022-07-19T02:21:09;18.20;99.90
11573;DHT22;5842;52.426;4.886;2022-07-19T02:23:39;18.20;99.90
11573;DHT22;5842;52.426;4.886;2022-07-19T02:26:06;18.20;99.90
11573;DHT22;5842;52.426;4.886;2022-07-19T02:28:33;18.20;99.90
11573;DHT22;5842;52.426;4.886;2022-07-19T02:31:02;18.20;99.90
11573;DHT22;5842;52.426;4.886;2022-07-19T02:33:29;18.20;99.90
11573;DHT22;5842;52.426;4.886;2022-07-19T02:35:57;18.10;99.90
11573;DHT22;5842;52.426;4.886;2022-07-19T02:38:24;18.10;99.90
11573;DHT22;5842;52.426;4.886;2022-07-19T02:40:53;18.10;99.90
11573;DHT22;5842;52.426;4.886;2022-07-19T02:43:20;18.10;99.90
11573;DHT22;5842;52.426;4.886;2022-07-19T02:45:47;18.00;99.90
11573;DHT22;5842;52.426;4.886;2022-07-19T02:48:16;18.00;99.90
11573;DHT22;5842;52.426;4.886;2022-07-19T02:50:44;18.00;99.90
11573;DHT22;5842;52.426;4.886;2022-07-19T02:53:11;17.90;99.90
11573;DHT22;5842;52.426;4.886;2022-07-19T02:55:38;17.90;99.90
11573;DHT22;5842;52.426;4.886;2022-07-19T02:58:05;17.90;99.90
11573;DHT22;5842;52.426;4.886;2022-07-19T03:00:33;17.90;99.90
11573;DHT22;5842;52.426;4.886;2022-07-19T03:03:00;17.90;99.90
11573;DHT22;5842;52.426;4.886;2022-07-19T03:05:49;17.90;99.90
11573;DHT22;5842;52.426;4.886;2022-07-19T03:08:16;17.80;99.90
11573;DHT22;5842;52.426;4.886;2022-07-19T03:10:44;17.80;99.90
11573;DHT22;5842;52.426;4.886;2022-07-19T03:13:11;17.70;99.90
11573;DHT22;5842;52.426;4.886;2022-07-19T03:15:38;17.80;99.90
11573;DHT22;5842;52.426;4.886;2022-07-19T03:18:05;17.70;99.90
11573;DHT22;5842;52.426;4.886;2022-07-19T03:20:32;17.70;99.90
11573;DHT22;5842;52.426;4.886;2022-07-19T03:23:03;17.70;99.90
11573;DHT22;5842;52.426;4.886;2022-07-19T03:25:30;17.70;99.90
11573;DHT22;5842;52.426;4.886;2022-07-19T03:27:58;17.60;99.90
11573;DHT22;5842;52.426;4.886;2022-07-19T03:30:25;17.60;99.90
11573;DHT22;5842;52.426;4.886;2022-07-19T03:32:52;17.60;99.90
11573;DHT22;5842;52.426;4.886;2022-07-19T03:35:20;17.60;99.90
11573;DHT22;5842;52.426;4.886;2022-07-19T03:37:47;17.60;99.90
11573;DHT22;5842;52.426;4.886;2022-07-19T03:40:16;17.60;99.90
11573;DHT22;5842;52.426;4.886;2022-07-19T03:42:43;17.50;99.90
11573;DHT22;5842;52.426;4.886;2022-07-19T03:45:11;17.50;99.90
11573;DHT22;5842;52.426;4.886;2022-07-19T03:47:38;17.50;99.90
11573;DHT22;5842;52.426;4.886;2022-07-19T03:50:05;17.50;99.90
11573;DHT22;5842;52.426;4.886;2022-07-19T03:52:32;17.50;99.90
11573;DHT22;5842;52.426;4.886;2022-07-19T03:55:00;17.50;99.90
11573;DHT22;5842;52.426;4.886;2022-07-19T03:57:29;17.50;99.90
11573;DHT22;5842;52.426;4.886;2022-07-19T03:59:56;17.50;99.90
11573;DHT22;5842;52.426;4.886;2022-07-19T04:02:23;17.60;99.90
11573;DHT22;5842;52.426;4.886;2022-07-19T04:04:50;17.60;99.90
11573;DHT22;5842;52.426;4.886;2022-07-19T04:07:17;17.60;99.90
11573;DHT22;5842;52.426;4.886;2022-07-19T04:09:47;17.60;99.90
11573;DHT22;5842;52.426;4.886;2022-07-19T04:12:14;17.70;99.90
11573;DHT22;5842;52.426;4.886;2022-07-19T04:14:43;17.70;99.90
11573;DHT22;5842;52.426;4.886;2022-07-19T04:17:10;17.80;99.90
11573;DHT22;5842;52.426;4.886;2022-07-19T04:19:37;17.80;99.90
11573;DHT22;5842;52.426;4.886;2022-07-19T04:22:04;17.90;99.90
11573;DHT22;5842;52.426;4.886;2022-07-19T04:24:31;18.00;99.90
11573;DHT22;5842;52.426;4.886;2022-07-19T04:26:58;18.00;99.90
11573;DHT22;5842;52.426;4.886;2022-07-19T04:29:25;18.10;99.90
11573;DHT22;5842;52.426;4.886;2022-07-19T04:31:53;18.10;99.90
11573;DHT22;5842;52.426;4.886;2022-07-19T04:34:21;18.20;99.90
11573;DHT22;5842;52.426;4.886;2022-07-19T04:36:48;18.40;99.90
11573;DHT22;5842;52.426;4.886;2022-07-19T04:39:15;18.80;99.90
11573;DHT22;5842;52.426;4.886;2022-07-19T04:41:42;19.40;99.90
11573;DHT22;5842;52.426;4.886;2022-07-19T04:44:09;20.10;99.90
11573;DHT22;5842;52.426;4.886;2022-07-19T04:46:36;20.80;99.90
11573;DHT22;5842;52.426;4.886;2022-07-19T04:49:05;21.50;99.90
11573;DHT22;5842;52.426;4.886;2022-07-19T04:51:32;22.10;99.90
11573;DHT22;5842;52.426;4.886;2022-07-19T04:53:59;22.60;99.90
11573;DHT22;5842;52.426;4.886;2022-07-19T04:56:26;23.00;99.90
11573;DHT22;5842;52.426;4.886;2022-07-19T04:58:53;23.50;99.90
11573;DHT22;5842;52.426;4.886;2022-07-19T05:01:20;23.80;99.90
11573;DHT22;5842;52.426;4.886;2022-07-19T05:03:47;24.10;99.90
11573;DHT22;5842;52.426;4.886;2022-07-19T05:06:15;24.50;99.90
11573;DHT22;5842;52.426;4.886;2022-07-19T05:08:42;25.10;99.90
11573;DHT22;5842;52.426;4.886;2022-07-19T05:11:09;25.70;99.90
11573;DHT22;5842;52.426;4.886;2022-07-19T05:13:36;26.40;99.90
11573;DHT22;5842;52.426;4.886;2022-07-19T05:16:03;27.00;99.90
11573;DHT22;5842;52.426;4.886;2022-07-19T05:18:30;27.70;99.90
11573;DHT22;5842;52.426;4.886;2022-07-19T05:20:57;28.20;99.90
11573;DHT22;5842;52.426;4.886;2022-07-19T05:23:25;28.70;99.90
11573;DHT22;5842;52.426;4.886;2022-07-19T05:25:52;29.20;98.60
11573;DHT22;5842;52.426;4.886;2022-07-19T05:28:19;29.70;98.00
11573;DHT22;5842;52.426;4.886;2022-07-19T05:30:46;30.30;97.20
11573;DHT22;5842;52.426;4.886;2022-07-19T05:33:13;30.90;95.10
11573;DHT22;5842;52.426;4.886;2022-07-19T05:35:41;31.40;91.90
11573;DHT22;5842;52.426;4.886;2022-07-19T05:38:08;31.80;91.40
11573;DHT22;5842;52.426;4.886;2022-07-19T05:40:36;32.00;90.20
11573;DHT22;5842;52.426;4.886;2022-07-19T05:43:03;32.30;90.00
11573;DHT22;5842;52.426;4.886;2022-07-19T05:45:30;32.60;90.00
11573;DHT22;5842;52.426;4.886;2022-07-19T05:47:57;33.00;88.50
11573;DHT22;5842;52.426;4.886;2022-07-19T05:50:24;33.40;87.00
11573;DHT22;5842;52.426;4.886;2022-07-19T05:52:54;33.00;85.30
11573;DHT22;5842;52.426;4.886;2022-07-19T05:55:20;31.90;86.20
11573;DHT22;5842;52.426;4.886;2022-07-19T05:57:49;30.80;89.50
11573;DHT22;5842;52.426;4.886;2022-07-19T06:00:15;30.30;90.90
11573;DHT22;5842;52.426;4.886;2022-07-19T06:02:43;30.90;90.70
11573;DHT22;5842;52.426;4.886;2022-07-19T06:05:10;31.80;89.70
11573;DHT22;5842;52.426;4.886;2022-07-19T06:07:37;33.00;86.80
11573;DHT22;5842;52.426;4.886;2022-07-19T06:10:04;34.10;83.20
11573;DHT22;5842;52.426;4.886;2022-07-19T06:12:31;35.10;78.40
11573;DHT22;5842;52.426;4.886;2022-07-19T06:14:59;35.90;75.90
11573;DHT22;5842;52.426;4.886;2022-07-19T06:17:26;36.30;74.10
11573;DHT22;5842;52.426;4.886;2022-07-19T06:19:53;36.70;72.20
11573;DHT22;5842;52.426;4.886;2022-07-19T06:22:20;37.10;70.40
11573;DHT22;5842;52.426;4.886;2022-07-19T06:24:47;37.50;69.50
11573;DHT22;5842;52.426;4.886;2022-07-19T06:27:14;37.70;67.20
11573;DHT22;5842;52.426;4.886;2022-07-19T06:29:40;37.70;67.10
11573;DHT22;5842;52.426;4.886;2022-07-19T06:32:09;38.10;65.80
11573;DHT22;5842;52.426;4.886;2022-07-19T06:34:36;38.30;64.40
11573;DHT22;5842;52.426;4.886;2022-07-19T06:37:02;38.60;64.00
11573;DHT22;5842;52.426;4.886;2022-07-19T06:39:29;39.40;61.50
11573;DHT22;5842;52.426;4.886;2022-07-19T06:41:56;39.70;60.50
11573;DHT22;5842;52.426;4.886;2022-07-19T06:44:26;40.00;59.10
11573;DHT22;5842;52.426;4.886;2022-07-19T06:46:53;39.90;59.10
11573;DHT22;5842;52.426;4.886;2022-07-19T06:49:22;40.20;57.80
11573;DHT22;5842;52.426;4.886;2022-07-19T06:51:48;40.50;56.10
11573;DHT22;5842;52.426;4.886;2022-07-19T06:54:15;40.70;54.20
11573;DHT22;5842;52.426;4.886;2022-07-19T06:56:42;40.80;53.50
11573;DHT22;5842;52.426;4.886;2022-07-19T06:59:09;40.40;53.50
11573;DHT22;5842;52.426;4.886;2022-07-19T07:01:36;40.50;52.30
11573;DHT22;5842;52.426;4.886;2022-07-19T07:04:03;40.60;51.00
11573;DHT22;5842;52.426;4.886;2022-07-19T07:06:31;40.90;50.20
11573;DHT22;5842;52.426;4.886;2022-07-19T07:08:58;41.00;49.90
11573;DHT22;5842;52.426;4.886;2022-07-19T07:11:25;40.70;48.60
11573;DHT22;5842;52.426;4.886;2022-07-19T07:13:52;39.60;50.00
11573;DHT22;5842;52.426;4.886;2022-07-19T07:16:19;38.10;51.10
11573;DHT22;5842;52.426;4.886;2022-07-19T07:18:47;36.20;52.30
11573;DHT22;5842;52.426;4.886;2022-07-19T07:38:40;39.70;63.10
11573;DHT22;5842;52.426;4.886;2022-07-19T07:41:07;40.60;46.80
11573;DHT22;5842;52.426;4.886;2022-07-19T07:43:35;41.50;44.80
11573;DHT22;5842;52.426;4.886;2022-07-19T07:46:02;41.60;44.60
11573;DHT22;5842;52.426;4.886;2022-07-19T07:48:31;42.00;43.60
11573;DHT22;5842;52.426;4.886;2022-07-19T07:50:58;42.90;42.50
11573;DHT22;5842;52.426;4.886;2022-07-19T07:53:25;43.20;42.60
11573;DHT22;5842;52.426;4.886;2022-07-19T07:55:53;43.70;40.40
11573;DHT22;5842;52.426;4.886;2022-07-19T07:58:20;43.80;41.60
11573;DHT22;5842;52.426;4.886;2022-07-19T08:00:47;45.20;57.50
11573;DHT22;5842;52.426;4.886;2022-07-19T08:03:17;45.30;40.20
11573;DHT22;5842;52.426;4.886;2022-07-19T08:05:44;46.00;37.30
11573;DHT22;5842;52.426;4.886;2022-07-19T08:08:13;46.10;37.60
11573;DHT22;5842;52.426;4.886;2022-07-19T08:10:40;45.90;37.50
11573;DHT22;5842;52.426;4.886;2022-07-19T08:13:09;45.10;37.60
11573;DHT22;5842;52.426;4.886;2022-07-19T08:15:36;45.40;36.20
11573;DHT22;5842;52.426;4.886;2022-07-19T08:18:03;45.00;36.60
11573;DHT22;5842;52.426;4.886;2022-07-19T08:20:31;44.90;37.00
11573;DHT22;5842;52.426;4.886;2022-07-19T08:22:58;45.10;36.30
11573;DHT22;5842;52.426;4.886;2022-07-19T08:25:25;44.80;36.70
11573;DHT22;5842;52.426;4.886;2022-07-19T08:27:52;45.50;36.30
11573;DHT22;5842;52.426;4.886;2022-07-19T08:30:21;46.10;35.30
11573;DHT22;5842;52.426;4.886;2022-07-19T08:32:48;45.70;35.60
11573;DHT22;5842;52.426;4.886;2022-07-19T08:35:15;46.10;36.00
11573;DHT22;5842;52.426;4.886;2022-07-19T08:37:42;46.30;36.10
11573;DHT22;5842;52.426;4.886;2022-07-19T08:40:10;45.90;35.10
11573;DHT22;5842;52.426;4.886;2022-07-19T08:42:37;46.70;34.50
11573;DHT22;5842;52.426;4.886;2022-07-19T08:45:07;46.40;34.00
11573;DHT22;5842;52.426;4.886;2022-07-19T08:47:37;46.50;35.20
11573;DHT22;5842;52.426;4.886;2022-07-19T08:50:07;46.60;35.10
11573;DHT22;5842;52.426;4.886;2022-07-19T08:52:35;45.80;35.50
11573;DHT22;5842;52.426;4.886;2022-07-19T08:55:03;45.70;38.30
11573;DHT22;5842;52.426;4.886;2022-07-19T08:57:31;45.90;39.90
11573;DHT22;5842;52.426;4.886;2022-07-19T09:00:15;46.30;39.40
11573;DHT22;5842;52.426;4.886;2022-07-19T09:02:53;46.10;40.00
11573;DHT22;5842;52.426;4.886;2022-07-19T09:05:21;45.70;40.90
11573;DHT22;5842;52.426;4.886;2022-07-19T09:08:04;46.10;39.60
11573;DHT22;5842;52.426;4.886;2022-07-19T09:10:32;45.90;40.40
11573;DHT22;5842;52.426;4.886;2022-07-19T09:13:05;45.90;39.80
11573;DHT22;5842;52.426;4.886;2022-07-19T09:15:53;45.40;41.10
11573;DHT22;5842;52.426;4.886;2022-07-19T09:18:24;45.20;40.80
11573;DHT22;5842;52.426;4.886;2022-07-19T09:20:55;44.90;41.10
11573;DHT22;5842;52.426;4.886;2022-07-19T09:23:22;44.80;41.80
11573;DHT22;5842;52.426;4.886;2022-07-19T09:25:51;44.40;42.10
11573;DHT22;5842;52.426;4.886;2022-07-19T09:28:20;44.30;41.70
11573;DHT22;5842;52.426;4.886;2022-07-19T09:30:50;44.10;40.90
11573;DHT22;5842;52.426;4.886;2022-07-19T09:33:19;43.80;41.50
11573;DHT22;5842;52.426;4.886;2022-07-19T09:35:49;43.90;41.90
11573;DHT22;5842;52.426;4.886;2022-07-19T09:38:22;44.10;40.20
11573;DHT22;5842;52.426;4.886;2022-07-19T09:40:51;43.60;40.50
11573;DHT22;5842;52.426;4.886;2022-07-19T09:43:18;43.50;40.10
11573;DHT22;5842;52.426;4.886;2022-07-19T09:45:48;43.40;39.10
11573;DHT22;5842;52.426;4.886;2022-07-19T09:48:16;43.40;40.70
11573;DHT22;5842;52.426;4.886;2022-07-19T09:50:43;43.10;40.50
11573;DHT22;5842;52.426;4.886;2022-07-19T09:53:13;42.80;41.60
11573;DHT22;5842;52.426;4.886;2022-07-19T09:55:41;41.90;43.80
11573;DHT22;5842;52.426;4.886;2022-07-19T09:58:08;41.10;44.10
11573;DHT22;5842;52.426;4.886;2022-07-19T10:00:36;40.30;46.00
11573;DHT22;5842;52.426;4.886;2022-07-19T10:03:03;39.50;47.70
11573;DHT22;5842;52.426;4.886;2022-07-19T10:05:32;39.00;48.90
11573;DHT22;5842;52.426;4.886;2022-07-19T10:08:00;38.40;49.20
11573;DHT22;5842;52.426;4.886;2022-07-19T10:10:28;38.00;50.50
11573;DHT22;5842;52.426;4.886;2022-07-19T10:12:56;37.80;50.10
11573;DHT22;5842;52.426;4.886;2022-07-19T10:15:24;37.70;51.60
11573;DHT22;5842;52.426;4.886;2022-07-19T10:17:58;37.70;51.40
11573;DHT22;5842;52.426;4.886;2022-07-19T10:20:28;37.70;51.40
11573;DHT22;5842;52.426;4.886;2022-07-19T10:22:56;37.50;50.70
11573;DHT22;5842;52.426;4.886;2022-07-19T10:25:24;37.40;52.00
11573;DHT22;5842;52.426;4.886;2022-07-19T10:27:52;37.30;48.10
11573;DHT22;5842;52.426;4.886;2022-07-19T10:30:22;37.20;47.70
11573;DHT22;5842;52.426;4.886;2022-07-19T10:32:50;37.20;47.40
11573;DHT22;5842;52.426;4.886;2022-07-19T10:35:18;37.20;50.80
11573;DHT22;5842;52.426;4.886;2022-07-19T10:37:45;37.20;47.10
11573;DHT22;5842;52.426;4.886;2022-07-19T10:40:13;37.30;49.30
11573;DHT22;5842;52.426;4.886;2022-07-19T10:45:23;37.10;45.80
11573;DHT22;5842;52.426;4.886;2022-07-19T10:48:06;37.20;45.50
11573;DHT22;5842;52.426;4.886;2022-07-19T10:56:15;37.20;44.60
11573;DHT22;5842;52.426;4.886;2022-07-19T10:58:48;37.30;44.90
11573;DHT22;5842;52.426;4.886;2022-07-19T11:01:17;37.30;44.50
11573;DHT22;5842;52.426;4.886;2022-07-19T11:03:44;37.30;45.60
11573;DHT22;5842;52.426;4.886;2022-07-19T11:06:18;37.60;46.70
11573;DHT22;5842;52.426;4.886;2022-07-19T11:08:45;37.80;42.20
11573;DHT22;5842;52.426;4.886;2022-07-19T11:11:12;37.80;42.80
11573;DHT22;5842;52.426;4.886;2022-07-19T11:13:40;37.80;43.00
11573;DHT22;5842;52.426;4.886;2022-07-19T11:16:09;37.80;41.00
11573;DHT22;5842;52.426;4.886;2022-07-19T11:18:37;38.10;42.70
11573;DHT22;5842;52.426;4.886;2022-07-19T11:21:04;38.20;39.80
11573;DHT22;5842;52.426;4.886;2022-07-19T11:23:32;38.20;41.20
11573;DHT22;5842;52.426;4.886;2022-07-19T11:26:07;38.10;39.50
11573;DHT22;5842;52.426;4.886;2022-07-19T11:28:34;37.90;39.50
11573;DHT22;5842;52.426;4.886;2022-07-19T11:31:10;37.80;39.50
11573;DHT22;5842;52.426;4.886;2022-07-19T11:33:38;37.70;39.40
11573;DHT22;5842;52.426;4.886;2022-07-19T11:36:06;37.80;39.80
11573;DHT22;5842;52.426;4.886;2022-07-19T11:38:33;37.70;40.20
11573;DHT22;5842;52.426;4.886;2022-07-19T11:41:00;37.80;40.10
11573;DHT22;5842;52.426;4.886;2022-07-19T11:43:27;38.10;41.50
11573;DHT22;5842;52.426;4.886;2022-07-19T11:45:55;38.30;40.50
11573;DHT22;5842;52.426;4.886;2022-07-19T11:48:25;38.50;41.40
11573;DHT22;5842;52.426;4.886;2022-07-19T11:51:07;38.50;38.80
11573;DHT22;5842;52.426;4.886;2022-07-19T11:53:35;38.30;38.20
11573;DHT22;5842;52.426;4.886;2022-07-19T11:56:05;38.20;39.60
11573;DHT22;5842;52.426;4.886;2022-07-19T11:58:32;38.20;38.60
11573;DHT22;5842;52.426;4.886;2022-07-19T12:01:00;38.20;38.80
11573;DHT22;5842;52.426;4.886;2022-07-19T12:03:27;38.40;40.90
11573;DHT22;5842;52.426;4.886;2022-07-19T12:05:55;38.60;39.70
11573;DHT22;5842;52.426;4.886;2022-07-19T12:08:32;38.90;41.00
11573;DHT22;5842;52.426;4.886;2022-07-19T12:10:59;38.90;38.90
11573;DHT22;5842;52.426;4.886;2022-07-19T12:13:27;38.90;39.40
11573;DHT22;5842;52.426;4.886;2022-07-19T12:15:56;38.70;39.30
11573;DHT22;5842;52.426;4.886;2022-07-19T12:18:43;38.70;38.40
11573;DHT22;5842;52.426;4.886;2022-07-19T12:26:53;38.60;40.50
11573;DHT22;5842;52.426;4.886;2022-07-19T12:29:21;38.80;41.00
11573;DHT22;5842;52.426;4.886;2022-07-19T12:31:49;38.90;41.40
11573;DHT22;5842;52.426;4.886;2022-07-19T12:34:17;39.10;39.90
11573;DHT22;5842;52.426;4.886;2022-07-19T12:36:44;39.10;39.10
11573;DHT22;5842;52.426;4.886;2022-07-19T12:39:18;39.00;39.60
11573;DHT22;5842;52.426;4.886;2022-07-19T12:41:57;38.90;39.20
11573;DHT22;5842;52.426;4.886;2022-07-19T12:44:24;38.80;39.70
11573;DHT22;5842;52.426;4.886;2022-07-19T12:46:51;38.80;41.00
11573;DHT22;5842;52.426;4.886;2022-07-19T12:49:18;38.90;38.90
11573;DHT22;5842;52.426;4.886;2022-07-19T12:51:47;38.90;39.60
11573;DHT22;5842;52.426;4.886;2022-07-19T12:54:14;38.90;39.80
11573;DHT22;5842;52.426;4.886;2022-07-19T12:56:40;38.90;39.40
11573;DHT22;5842;52.426;4.886;2022-07-19T12:59:09;39.10;38.80
11573;DHT22;5842;52.426;4.886;2022-07-19T13:01:53;39.00;38.60
11573;DHT22;5842;52.426;4.886;2022-07-19T13:04:20;39.00;38.70
11573;DHT22;5842;52.426;4.886;2022-07-19T13:06:47;39.00;40.30
11573;DHT22;5842;52.426;4.886;2022-07-19T13:09:14;39.10;40.90
11573;DHT22;5842;52.426;4.886;2022-07-19T13:11:41;39.20;40.80
11573;DHT22;5842;52.426;4.886;2022-07-19T13:14:10;39.30;40.40
11573;DHT22;5842;52.426;4.886;2022-07-19T13:16:37;39.40;39.90
11573;DHT22;5842;52.426;4.886;2022-07-19T13:19:05;39.30;39.30
11573;DHT22;5842;52.426;4.886;2022-07-19T13:21:32;39.30;39.20
11573;DHT22;5842;52.426;4.886;2022-07-19T13:23:59;39.30;39.30
11573;DHT22;5842;52.426;4.886;2022-07-19T13:26:25;39.30;41.00
11573;DHT22;5842;52.426;4.886;2022-07-19T13:28:52;39.40;39.00
11573;DHT22;5842;52.426;4.886;2022-07-19T13:31:21;39.40;39.80
11573;DHT22;5842;52.426;4.886;2022-07-19T13:33:50;39.20;40.20
11573;DHT22;5842;52.426;4.886;2022-07-19T13:36:17;39.20;40.80
11573;DHT22;5842;52.426;4.886;2022-07-19T13:38:44;39.20;41.80
11573;DHT22;5842;52.426;4.886;2022-07-19T13:41:13;39.20;41.40
11573;DHT22;5842;52.426;4.886;2022-07-19T13:43:40;39.10;41.20
11573;DHT22;5842;52.426;4.886;2022-07-19T13:46:07;39.20;39.90
11573;DHT22;5842;52.426;4.886;2022-07-19T13:48:35;39.20;40.90
11573;DHT22;5842;52.426;4.886;2022-07-19T13:51:02;39.10;39.30
11573;DHT22;5842;52.426;4.886;2022-07-19T13:53:29;38.90;39.50
11573;DHT22;5842;52.426;4.886;2022-07-19T13:55:56;38.80;37.50
11573;DHT22;5842;52.426;4.886;2022-07-19T13:58:23;38.70;38.20
11573;DHT22;5842;52.426;4.886;2022-07-19T14:00:50;38.60;37.80
11573;DHT22;5842;52.426;4.886;2022-07-19T14:03:17;38.50;38.90
11573;DHT22;5842;52.426;4.886;2022-07-19T14:05:47;38.60;38.00
11573;DHT22;5842;52.426;4.886;2022-07-19T14:08:14;38.50;37.70
11573;DHT22;5842;52.426;4.886;2022-07-19T14:10:41;38.60;37.80
11573;DHT22;5842;52.426;4.886;2022-07-19T14:13:08;38.60;37.50
11573;DHT22;5842;52.426;4.886;2022-07-19T14:15:35;38.50;36.70
11573;DHT22;5842;52.426;4.886;2022-07-19T14:18:02;38.50;37.30
11573;DHT22;5842;52.426;4.886;2022-07-19T14:20:29;38.50;35.90
11573;DHT22;5842;52.426;4.886;2022-07-19T14:22:57;38.50;35.80
11573;DHT22;5842;52.426;4.886;2022-07-19T14:25:24;38.60;35.70
11573;DHT22;5842;52.426;4.886;2022-07-19T14:27:51;38.60;35.70
11573;DHT22;5842;52.426;4.886;2022-07-19T14:30:18;38.60;35.90
11573;DHT22;5842;52.426;4.886;2022-07-19T14:32:45;38.60;35.80
11573;DHT22;5842;52.426;4.886;2022-07-19T14:35:12;38.60;37.30
11573;DHT22;5842;52.426;4.886;2022-07-19T14:37:41;38.80;37.50
11573;DHT22;5842;52.426;4.886;2022-07-19T14:40:10;38.80;35.90
11573;DHT22;5842;52.426;4.886;2022-07-19T14:42:37;38.80;35.80
11573;DHT22;5842;52.426;4.886;2022-07-19T14:45:04;38.80;36.00
11573;DHT22;5842;52.426;4.886;2022-07-19T14:47:31;39.00;37.20
11573;DHT22;5842;52.426;4.886;2022-07-19T14:49:58;38.90;36.70
11573;DHT22;5842;52.426;4.886;2022-07-19T14:52:25;38.90;37.60
11573;DHT22;5842;52.426;4.886;2022-07-19T14:54:52;38.80;36.70
11573;DHT22;5842;52.426;4.886;2022-07-19T14:57:21;38.80;35.90
11573;DHT22;5842;52.426;4.886;2022-07-19T14:59:48;38.80;35.80
11573;DHT22;5842;52.426;4.886;2022-07-19T15:02:15;38.80;36.80
11573;DHT22;5842;52.426;4.886;2022-07-19T15:04:42;38.80;40.00
11573;DHT22;5842;52.426;4.886;2022-07-19T15:07:09;38.80;42.90
11573;DHT22;5842;52.426;4.886;2022-07-19T15:09:35;38.80;45.60
11573;DHT22;5842;52.426;4.886;2022-07-19T15:12:03;38.70;45.00
11573;DHT22;5842;52.426;4.886;2022-07-19T15:14:31;38.60;45.00
11573;DHT22;5842;52.426;4.886;2022-07-19T15:16:59;38.60;43.80
11573;DHT22;5842;52.426;4.886;2022-07-19T15:19:26;38.50;45.60
11573;DHT22;5842;52.426;4.886;2022-07-19T15:21:54;38.40;45.10
11573;DHT22;5842;52.426;4.886;2022-07-19T15:24:21;38.30;46.50
11573;DHT22;5842;52.426;4.886;2022-07-19T15:26:47;38.20;46.00
11573;DHT22;5842;52.426;4.886;2022-07-19T15:29:15;38.10;45.60
11573;DHT22;5842;52.426;4.886;2022-07-19T15:31:44;38.00;46.30
11573;DHT22;5842;52.426;4.886;2022-07-19T15:34:10;37.90;46.60
11573;DHT22;5842;52.426;4.886;2022-07-19T15:36:37;37.80;46.40
11573;DHT22;5842;52.426;4.886;2022-07-19T15:39:04;37.70;47.00
11573;DHT22;5842;52.426;4.886;2022-07-19T15:41:32;37.60;47.80
11573;DHT22;5842;52.426;4.886;2022-07-19T15:43:59;37.50;47.60
11573;DHT22;5842;52.426;4.886;2022-07-19T15:46:26;37.40;48.90
11573;DHT22;5842;52.426;4.886;2022-07-19T15:48:57;37.40;48.40
11573;DHT22;5842;52.426;4.886;2022-07-19T15:51:25;37.40;48.10
11573;DHT22;5842;52.426;4.886;2022-07-19T15:53:52;37.30;46.80
11573;DHT22;5842;52.426;4.886;2022-07-19T15:56:19;37.20;47.40
11573;DHT22;5842;52.426;4.886;2022-07-19T15:58:45;37.20;48.10
11573;DHT22;5842;52.426;4.886;2022-07-19T16:01:12;37.20;47.90
11573;DHT22;5842;52.426;4.886;2022-07-19T16:03:40;37.10;49.00
11573;DHT22;5842;52.426;4.886;2022-07-19T16:06:09;37.10;48.90
11573;DHT22;5842;52.426;4.886;2022-07-19T16:08:36;37.10;49.30
11573;DHT22;5842;52.426;4.886;2022-07-19T16:11:03;37.00;48.70
11573;DHT22;5842;52.426;4.886;2022-07-19T16:13:30;36.90;49.20
11573;DHT22;5842;52.426;4.886;2022-07-19T16:15:57;36.90;49.00
11573;DHT22;5842;52.426;4.886;2022-07-19T16:18:24;36.80;50.00
11573;DHT22;5842;52.426;4.886;2022-07-19T16:20:51;36.80;48.10
11573;DHT22;5842;52.426;4.886;2022-07-19T16:23:19;36.60;49.30